Time;durP1;ratioP1;P1;durP2;ratioP2;P2;SDS_P1;SDS_P2;PMS_P1;PMS_P2;Temp;Humidity;BMP_temperature;BMP_pressure;BME280_temperature;BME280_humidity;BME280_pressure;Samples;Min_cycle;Max_cycle;Signal;HPM_P1;HPM_P2
2023/09/19 00:00:23;;;;;;;;;1.00;1.00;;;;;;;;6309316;22;45299;-71
2023/09/19 00:02:59;;;;;;;;;2.00;0.00;;;;;;;;6309841;22;45286;-71
2023/09/19 00:05:25;;;;;;;;;2.00;1.67;;;;;;;;6308850;22;45259;-71
2023/09/19 00:07:53;;;;;;;;;1.00;1.00;;;;;;;;6281160;22;45449;-71
2023/09/19 00:10:19;;;;;;;;;2.33;0.67;;;;;;;;6308540;22;45625;-71
2023/09/19 00:12:45;;;;;;;;;1.33;0.67;;;;;;;;6309356;22;45211;-72
2023/09/19 00:15:11;;;;;;;;;1.00;1.00;;;;;;;;6281136;22;45169;-72
2023/09/19 00:17:37;;;;;;;;;1.00;1.00;;;;;;;;6282021;22;45192;-71
2023/09/19 00:20:06;;;;;;;;;2.00;1.00;;;;;;;;6309462;22;45228;-71
2023/09/19 00:22:32;;;;;;;;;3.33;1.00;;;;;;;;6309273;22;45211;-71
2023/09/19 00:24:57;;;;;;;;;4.33;1.00;;;;;;;;6308899;22;45181;-72
2023/09/19 00:27:22;;;;;;;;;3.00;3.00;;;;;;;;6281111;22;45255;-71
2023/09/19 00:29:48;;;;;;;;;1.33;1.00;;;;;;;;6280997;22;45744;-72
2023/09/19 00:32:13;;;;;;;;;0.33;0.33;;;;;;;;6281363;22;46863;-71
2023/09/19 00:34:38;;;;;;;;;2.33;1.00;;;;;;;;6309526;22;45422;-71
2023/09/19 00:37:03;;;;;;;;;0.00;0.00;;;;;;;;6309852;22;45165;-71
2023/09/19 00:39:31;;;;;;;;;2.00;0.33;;;;;;;;6309131;22;45147;-72
2023/09/19 00:41:56;;;;;;;;;3.33;1.00;;;;;;;;6280580;22;48454;-72
2023/09/19 00:44:23;;;;;;;;;2.00;1.00;;;;;;;;6309494;22;45089;-71
2023/09/19 00:46:50;;;;;;;;;1.00;1.00;;;;;;;;6280702;22;45313;-72
2023/09/19 00:49:15;;;;;;;;;2.00;1.00;;;;;;;;6309387;22;45370;-71
2023/09/19 00:51:45;;;;;;;;;0.00;0.00;;;;;;;;6308640;22;46739;-71
2023/09/19 00:54:12;;;;;;;;;2.00;0.00;;;;;;;;6309142;22;45258;-71
2023/09/19 00:56:40;;;;;;;;;0.33;0.33;;;;;;;;6309013;22;45271;-71
2023/09/19 00:59:05;;;;;;;;;3.67;2.00;;;;;;;;6309313;22;45298;-71
2023/09/19 01:01:31;;;;;;;;;1.67;1.00;;;;;;;;6308776;22;45284;-71
2023/09/19 01:03:56;;;;;;;;;1.00;1.00;;;;;;;;6309657;22;45255;-71
2023/09/19 01:06:22;;;;;;;;;2.00;2.00;;;;;;;;6281013;22;45258;-71
2023/09/19 01:08:47;;;;;;;;;1.33;1.33;;;;;;;;6309546;22;45355;-72
2023/09/19 01:11:17;;;;;;;;;5.00;2.00;;;;;;;;6280045;22;46868;-71
2023/09/19 01:13:52;;;;;;;;;2.00;1.00;;;;;;;;6309388;22;45311;-72
2023/09/19 01:16:18;;;;;;;;;2.00;2.00;;;;;;;;6309165;22;45413;-71
2023/09/19 01:18:50;;;;;;;;;4.00;1.00;;;;;;;;6309505;22;45224;-71
2023/09/19 01:21:20;;;;;;;;;0.33;0.33;;;;;;;;6308876;22;46534;-71
2023/09/19 01:24:05;;;;;;;;;1.33;1.00;;;;;;;;6309329;22;45295;-72
2023/09/19 01:26:36;;;;;;;;;5.00;0.67;;;;;;;;6308782;22;45237;-72
2023/09/19 01:29:13;;;;;;;;;1.00;1.00;;;;;;;;6281372;22;45426;-71
2023/09/19 01:31:39;;;;;;;;;1.33;0.00;;;;;;;;6308912;22;45350;-71
2023/09/19 01:34:06;;;;;;;;;3.00;2.00;;;;;;;;6309007;22;45308;-72
2023/09/19 01:36:35;;;;;;;;;0.00;0.00;;;;;;;;6309347;22;45286;-72
2023/09/19 01:39:06;;;;;;;;;2.33;1.00;;;;;;;;6280167;22;45446;-71
2023/09/19 01:41:37;;;;;;;;;0.33;0.33;;;;;;;;6307713;22;46183;-72
2023/09/19 01:44:06;;;;;;;;;2.67;0.00;;;;;;;;6309305;22;45302;-71
2023/09/19 01:46:37;;;;;;;;;3.00;2.00;;;;;;;;6309009;22;45298;-72
2023/09/19 01:49:20;;;;;;;;;1.67;1.33;;;;;;;;6309226;22;45346;-71
2023/09/19 01:51:53;;;;;;;;;1.00;1.00;;;;;;;;6308012;22;46405;-71
2023/09/19 01:54:24;;;;;;;;;1.33;1.00;;;;;;;;6308492;22;45197;-71
2023/09/19 01:57:14;;;;;;;;;0.67;0.00;;;;;;;;6280168;22;45322;-71
2023/09/19 01:59:43;;;;;;;;;1.67;1.00;;;;;;;;6308852;22;45215;-72
2023/09/19 02:02:08;;;;;;;;;4.00;0.00;;;;;;;;6280601;22;46564;-71
2023/09/19 02:04:34;;;;;;;;;1.33;1.33;;;;;;;;6309070;22;45213;-71
2023/09/19 02:07:00;;;;;;;;;3.00;1.00;;;;;;;;6309280;22;45304;-71
2023/09/19 02:09:26;;;;;;;;;2.00;2.00;;;;;;;;6308861;22;45383;-71
2023/09/19 02:11:51;;;;;;;;;1.33;0.00;;;;;;;;6308473;22;46244;-71
2023/09/19 02:14:16;;;;;;;;;2.33;1.67;;;;;;;;6309258;22;45368;-71
2023/09/19 02:16:41;;;;;;;;;2.33;1.00;;;;;;;;6309044;22;45346;-71
2023/09/19 02:19:07;;;;;;;;;8.67;1.67;;;;;;;;6280935;22;46748;-71
2023/09/19 02:21:32;;;;;;;;;2.33;2.00;;;;;;;;6280997;22;47269;-71
2023/09/19 02:23:58;;;;;;;;;1.00;1.00;;;;;;;;6309238;22;45169;-71
2023/09/19 02:26:24;;;;;;;;;1.00;1.00;;;;;;;;6280783;22;45104;-71
2023/09/19 02:28:49;;;;;;;;;1.00;1.00;;;;;;;;6280502;22;45475;-71
2023/09/19 02:31:16;;;;;;;;;2.00;2.00;;;;;;;;6308682;22;46199;-71
2023/09/19 02:33:42;;;;;;;;;1.00;1.00;;;;;;;;6280338;22;45254;-71
2023/09/19 02:36:07;;;;;;;;;4.00;1.33;;;;;;;;6280873;22;45474;-72
2023/09/19 02:38:32;;;;;;;;;1.67;1.00;;;;;;;;6308626;22;45259;-72
2023/09/19 02:40:58;;;;;;;;;3.67;1.00;;;;;;;;6307670;22;45308;-72
2023/09/19 02:43:23;;;;;;;;;2.67;1.33;;;;;;;;6308980;22;45204;-71
2023/09/19 02:45:54;;;;;;;;;3.67;1.33;;;;;;;;6308887;22;45641;-71
2023/09/19 02:48:20;;;;;;;;;2.67;1.00;;;;;;;;6308893;22;45219;-71
2023/09/19 02:50:46;;;;;;;;;3.00;2.00;;;;;;;;6308400;22;45181;-71
2023/09/19 02:53:13;;;;;;;;;5.33;2.00;;;;;;;;6308458;22;45447;-72
2023/09/19 02:55:40;;;;;;;;;3.00;2.00;;;;;;;;6308443;22;45460;-71
2023/09/19 02:58:07;;;;;;;;;3.00;1.00;;;;;;;;6308517;22;45275;-72
2023/09/19 03:00:33;;;;;;;;;1.00;1.00;;;;;;;;6308700;22;45306;-71
2023/09/19 03:02:59;;;;;;;;;0.33;0.00;;;;;;;;6308795;22;45600;-71
2023/09/19 03:05:25;;;;;;;;;3.00;1.67;;;;;;;;6308882;22;45494;-72
2023/09/19 03:07:50;;;;;;;;;1.33;0.33;;;;;;;;6308713;22;45362;-72
2023/09/19 03:10:16;;;;;;;;;4.00;0.67;;;;;;;;6308075;22;45433;-72
2023/09/19 03:12:42;;;;;;;;;1.67;1.67;;;;;;;;6308882;22;45232;-71
2023/09/19 03:15:08;;;;;;;;;3.33;1.67;;;;;;;;6280577;22;45190;-72
2023/09/19 03:17:34;;;;;;;;;3.00;2.00;;;;;;;;6308285;22;45512;-72
2023/09/19 03:19:59;;;;;;;;;3.00;1.00;;;;;;;;6308114;22;45029;-72
2023/09/19 03:22:24;;;;;;;;;2.00;1.00;;;;;;;;6308218;22;45176;-72
2023/09/19 03:24:50;;;;;;;;;6.33;1.33;;;;;;;;6308003;22;45231;-72
2023/09/19 03:27:15;;;;;;;;;1.00;1.00;;;;;;;;6279423;22;46394;-72
2023/09/19 03:29:41;;;;;;;;;1.00;1.00;;;;;;;;6279852;22;45373;-72
2023/09/19 03:32:06;;;;;;;;;2.00;2.00;;;;;;;;6308311;22;45242;-72
2023/09/19 03:34:31;;;;;;;;;2.67;0.67;;;;;;;;6308465;22;45378;-71
2023/09/19 03:36:56;;;;;;;;;2.00;0.00;;;;;;;;6308120;22;45380;-71
2023/09/19 03:39:22;;;;;;;;;3.33;1.00;;;;;;;;6279755;22;45494;-72
2023/09/19 03:41:47;;;;;;;;;3.67;2.33;;;;;;;;6272710;22;45402;-71
2023/09/19 03:44:13;;;;;;;;;4.67;2.00;;;;;;;;6277324;22;45172;-71
2023/09/19 03:46:38;;;;;;;;;2.33;2.33;;;;;;;;6276701;22;45183;-72
2023/09/19 03:49:04;;;;;;;;;3.00;1.00;;;;;;;;6277054;22;45491;-72
2023/09/19 03:51:29;;;;;;;;;2.00;2.00;;;;;;;;6276685;22;45245;-71
2023/09/19 03:53:54;;;;;;;;;3.67;1.67;;;;;;;;6277431;22;45164;-71
2023/09/19 03:56:20;;;;;;;;;1.67;1.00;;;;;;;;6276306;22;45201;-72
2023/09/19 03:58:45;;;;;;;;;1.67;1.67;;;;;;;;6277016;22;46225;-71
2023/09/19 04:01:10;;;;;;;;;4.33;1.00;;;;;;;;6276668;22;45140;-72
2023/09/19 04:03:46;;;;;;;;;3.67;0.67;;;;;;;;6277190;22;45237;-72
2023/09/19 04:06:14;;;;;;;;;1.00;1.00;;;;;;;;6275947;22;45169;-72
2023/09/19 04:08:40;;;;;;;;;3.00;2.00;;;;;;;;6276843;22;45281;-72
2023/09/19 04:11:05;;;;;;;;;1.67;1.00;;;;;;;;6276064;22;45274;-72
2023/09/19 04:13:30;;;;;;;;;3.00;0.67;;;;;;;;6277290;22;45242;-71
2023/09/19 04:15:56;;;;;;;;;1.00;1.00;;;;;;;;6276760;22;45488;-72
2023/09/19 04:18:23;;;;;;;;;1.33;0.67;;;;;;;;6276492;22;45760;-71
2023/09/19 04:20:51;;;;;;;;;1.00;1.00;;;;;;;;6276528;22;45223;-72
2023/09/19 04:23:16;;;;;;;;;1.67;1.00;;;;;;;;6276868;22;45188;-73
2023/09/19 04:25:42;;;;;;;;;5.67;1.00;;;;;;;;6276002;22;45155;-72
2023/09/19 04:28:07;;;;;;;;;2.00;1.00;;;;;;;;6276668;22;45338;-72
2023/09/19 04:30:32;;;;;;;;;4.00;1.00;;;;;;;;6276357;22;45246;-72
2023/09/19 04:32:57;;;;;;;;;1.33;1.33;;;;;;;;6277090;22;45237;-72
2023/09/19 04:35:22;;;;;;;;;1.00;1.00;;;;;;;;6276839;22;45335;-72
2023/09/19 04:37:48;;;;;;;;;1.67;1.00;;;;;;;;6278354;22;46404;-72
2023/09/19 04:40:17;;;;;;;;;2.00;1.33;;;;;;;;6275177;22;45193;-72
2023/09/19 04:42:43;;;;;;;;;4.67;1.33;;;;;;;;6277292;22;45186;-72
2023/09/19 04:45:12;;;;;;;;;1.33;1.33;;;;;;;;6277953;22;45180;-72
2023/09/19 04:47:38;;;;;;;;;3.00;1.67;;;;;;;;6277898;22;46073;-72
2023/09/19 04:50:05;;;;;;;;;2.33;2.00;;;;;;;;6277550;22;45312;-72
2023/09/19 04:52:31;;;;;;;;;4.33;1.33;;;;;;;;6278216;22;45326;-72
2023/09/19 04:54:56;;;;;;;;;2.67;2.00;;;;;;;;6277341;22;45240;-72
2023/09/19 04:57:22;;;;;;;;;4.33;2.00;;;;;;;;6277581;22;46059;-72
2023/09/19 04:59:47;;;;;;;;;1.00;1.00;;;;;;;;6278018;22;45405;-72
2023/09/19 05:02:13;;;;;;;;;4.00;2.33;;;;;;;;6278333;22;45212;-72
2023/09/19 05:04:38;;;;;;;;;7.00;4.00;;;;;;;;6278002;22;45147;-73
2023/09/19 05:07:04;;;;;;;;;3.00;1.67;;;;;;;;6277993;22;46437;-72
2023/09/19 05:09:29;;;;;;;;;4.33;2.33;;;;;;;;6274126;22;45283;-72
2023/09/19 05:11:54;;;;;;;;;3.00;2.00;;;;;;;;6273082;22;45327;-72
2023/09/19 05:14:20;;;;;;;;;5.00;2.00;;;;;;;;6275336;22;45521;-73
2023/09/19 05:16:46;;;;;;;;;4.00;1.00;;;;;;;;6275859;22;46286;-72
2023/09/19 05:19:11;;;;;;;;;3.00;1.33;;;;;;;;6277778;22;45345;-72
2023/09/19 05:21:38;;;;;;;;;0.00;0.00;;;;;;;;6278421;22;45409;-72
2023/09/19 05:24:06;;;;;;;;;1.33;1.33;;;;;;;;6276188;22;45357;-72
2023/09/19 05:26:31;;;;;;;;;3.33;2.67;;;;;;;;6277152;22;45621;-73
2023/09/19 05:28:56;;;;;;;;;4.33;1.33;;;;;;;;6277421;22;45333;-72
2023/09/19 05:31:23;;;;;;;;;5.67;3.00;;;;;;;;6277468;22;45281;-72
2023/09/19 05:33:48;;;;;;;;;3.00;1.00;;;;;;;;6275649;22;46129;-72
2023/09/19 05:36:16;;;;;;;;;2.67;1.00;;;;;;;;6277644;22;45220;-72
2023/09/19 05:38:42;;;;;;;;;1.00;1.00;;;;;;;;6278300;22;45265;-72
2023/09/19 05:41:09;;;;;;;;;2.33;2.00;;;;;;;;6288421;22;45147;-72
2023/09/19 05:43:37;;;;;;;;;1.67;1.67;;;;;;;;6281180;22;45315;-72
2023/09/19 05:46:02;;;;;;;;;1.67;1.67;;;;;;;;6280024;22;45273;-72
2023/09/19 05:48:28;;;;;;;;;2.33;1.00;;;;;;;;6309019;22;45242;-73
2023/09/19 05:50:53;;;;;;;;;4.33;1.33;;;;;;;;6308867;22;45216;-72
2023/09/19 05:53:18;;;;;;;;;4.67;2.33;;;;;;;;6309234;22;45141;-72
2023/09/19 05:55:43;;;;;;;;;6.00;1.67;;;;;;;;6308131;22;46425;-73
2023/09/19 05:58:10;;;;;;;;;5.33;2.00;;;;;;;;6280756;22;45658;-72
2023/09/19 06:00:36;;;;;;;;;3.00;1.33;;;;;;;;6309116;22;45214;-73
2023/09/19 06:03:01;;;;;;;;;1.67;1.00;;;;;;;;6308756;22;45214;-72
2023/09/19 06:05:27;;;;;;;;;3.00;1.00;;;;;;;;6305239;22;45498;-73
2023/09/19 06:07:53;;;;;;;;;2.00;2.00;;;;;;;;6310003;22;45244;-72
2023/09/19 06:10:20;;;;;;;;;4.00;3.00;;;;;;;;6308256;22;45656;-73
2023/09/19 06:12:46;;;;;;;;;2.00;2.00;;;;;;;;6309321;22;45298;-72
2023/09/19 06:15:15;;;;;;;;;4.33;1.00;;;;;;;;6308555;22;46365;-72
2023/09/19 06:17:42;;;;;;;;;2.00;1.00;;;;;;;;6280447;22;45221;-72
2023/09/19 06:20:13;;;;;;;;;4.67;1.00;;;;;;;;6308787;22;45191;-72
2023/09/19 06:22:41;;;;;;;;;4.67;2.00;;;;;;;;6308934;22;45114;-72
2023/09/19 06:25:07;;;;;;;;;4.00;2.00;;;;;;;;6307726;22;45258;-72
2023/09/19 06:27:32;;;;;;;;;3.00;1.00;;;;;;;;6308662;22;45290;-72
2023/09/19 06:29:57;;;;;;;;;3.67;2.00;;;;;;;;6308499;22;45144;-73
2023/09/19 06:32:28;;;;;;;;;2.00;2.00;;;;;;;;6308577;22;45179;-72
2023/09/19 06:34:58;;;;;;;;;3.00;2.00;;;;;;;;6307738;22;45392;-72
2023/09/19 06:37:24;;;;;;;;;2.00;2.00;;;;;;;;6308118;22;45303;-72
2023/09/19 06:39:49;;;;;;;;;1.00;1.00;;;;;;;;6308296;22;45322;-72
2023/09/19 06:42:16;;;;;;;;;4.00;2.00;;;;;;;;6308142;22;45721;-72
2023/09/19 06:44:41;;;;;;;;;2.00;2.00;;;;;;;;6308084;22;45356;-72
2023/09/19 06:47:06;;;;;;;;;2.00;2.00;;;;;;;;6308429;22;45212;-72
2023/09/19 06:49:31;;;;;;;;;1.67;1.67;;;;;;;;6308550;22;45319;-72
2023/09/19 06:51:58;;;;;;;;;3.33;0.67;;;;;;;;6308222;22;45389;-72
2023/09/19 06:54:24;;;;;;;;;3.00;2.00;;;;;;;;6308360;22;46112;-72
2023/09/19 06:56:49;;;;;;;;;4.00;2.00;;;;;;;;6308221;22;45252;-72
2023/09/19 06:59:14;;;;;;;;;2.00;1.33;;;;;;;;6307992;22;45219;-72
2023/09/19 10:40:35;;;;;;;;;0.00;0.00;;;;;;;;6214925;22;46444;-74
2023/09/19 10:43:07;;;;;;;;;0.00;0.00;;;;;;;;6306186;22;45306;-74
2023/09/19 10:45:33;;;;;;;;;0.25;0.25;;;;;;;;6308711;22;46122;-76
2023/09/19 10:48:07;;;;;;;;;0.00;0.00;;;;;;;;6309195;22;45384;-75
2023/09/19 10:50:52;;;;;;;;;4.50;1.75;;;;;;;;6280467;22;45279;-74
2023/09/19 10:53:18;;;;;;;;;0.00;0.00;;;;;;;;6306935;22;45700;-73
2023/09/19 10:55:57;;;;;;;;;0.25;0.25;;;;;;;;6308273;22;46033;-73
2023/09/19 10:58:29;;;;;;;;;4.00;0.00;;;;;;;;6280406;22;45252;-73
2023/09/19 11:01:05;;;;;;;;;0.25;0.00;;;;;;;;6308021;22;45323;-72
2023/09/19 11:03:30;;;;;;;;;0.25;0.25;;;;;;;;6308844;22;45258;-72
2023/09/19 11:06:22;;;;;;;;;1.00;1.00;;;;;;;;6307518;22;46079;-73
2023/09/19 11:08:56;;;;;;;;;0.00;0.00;;;;;;;;6308978;22;45373;-73
2023/09/19 11:11:41;;;;;;;;;0.25;0.25;;;;;;;;6307298;22;45395;-76
2023/09/19 11:14:28;;;;;;;;;1.25;0.25;;;;;;;;6309256;22;45694;-75
2023/09/19 11:17:06;;;;;;;;;0.25;0.25;;;;;;;;6308436;22;45235;-76
2023/09/19 11:19:53;;;;;;;;;0.00;0.00;;;;;;;;6280213;22;45271;-75
2023/09/19 11:22:19;;;;;;;;;1.00;1.00;;;;;;;;6308563;22;45207;-75
2023/09/19 11:24:45;;;;;;;;;1.00;1.00;;;;;;;;6280271;22;45891;-76
2023/09/19 11:27:13;;;;;;;;;0.25;0.25;;;;;;;;6308108;22;45989;-74
2023/09/19 11:29:40;;;;;;;;;1.00;1.00;;;;;;;;6308144;22;45259;-75
2023/09/19 11:32:06;;;;;;;;;2.25;1.00;;;;;;;;6280653;22;45436;-74
2023/09/19 11:34:37;;;;;;;;;0.00;0.00;;;;;;;;6280591;22;45874;-77
2023/09/19 11:37:04;;;;;;;;;2.75;0.00;;;;;;;;6307678;22;46934;-74
2023/09/19 11:39:29;;;;;;;;;0.20;0.20;;;;;;;;6308600;22;45342;-75
2023/09/19 11:41:56;;;;;;;;;0.25;0.25;;;;;;;;6307429;22;45220;-74
2023/09/19 11:44:37;;;;;;;;;4.00;2.00;;;;;;;;6280578;22;45252;-77
2023/09/19 11:47:04;;;;;;;;;1.25;0.00;;;;;;;;6310240;22;46225;-77
2023/09/19 11:49:31;;;;;;;;;0.00;0.00;;;;;;;;6309685;22;45231;-75
2023/09/19 11:51:57;;;;;;;;;1.50;1.00;;;;;;;;6308873;22;45280;-74
2023/09/19 11:54:24;;;;;;;;;0.00;0.00;;;;;;;;6309903;22;45176;-76
2023/09/19 11:56:56;;;;;;;;;2.00;0.25;;;;;;;;6280593;22;47093;-75
2023/09/19 11:59:28;;;;;;;;;2.75;0.00;;;;;;;;6310010;22;45227;-75
2023/09/19 12:01:57;;;;;;;;;1.00;1.00;;;;;;;;6307652;22;45561;-75
2023/09/19 12:04:41;;;;;;;;;2.25;0.25;;;;;;;;6280435;22;45394;-75
2023/09/19 12:07:14;;;;;;;;;1.75;0.25;;;;;;;;6309032;22;46116;-75
2023/09/19 12:09:42;;;;;;;;;1.00;0.00;;;;;;;;6308064;22;45275;-75
2023/09/19 12:12:09;;;;;;;;;0.50;0.50;;;;;;;;6309478;22;45267;-73
2023/09/19 12:14:34;;;;;;;;;1.75;0.00;;;;;;;;6281072;22;45465;-75
2023/09/19 12:17:01;;;;;;;;;0.50;0.50;;;;;;;;6309548;22;45256;-75
2023/09/19 12:19:28;;;;;;;;;0.20;0.20;;;;;;;;6309519;22;45292;-76
2023/09/19 12:21:54;;;;;;;;;0.00;0.00;;;;;;;;6309670;22;45182;-76
2023/09/19 12:24:20;;;;;;;;;3.25;0.00;;;;;;;;6309561;22;45338;-76
2023/09/19 12:26:47;;;;;;;;;1.00;1.00;;;;;;;;6308965;22;46118;-76
2023/09/19 12:29:14;;;;;;;;;1.00;1.00;;;;;;;;6309590;22;45101;-76
2023/09/19 12:31:55;;;;;;;;;1.00;1.00;;;;;;;;6309386;22;45727;-76
2023/09/19 12:34:34;;;;;;;;;1.00;0.75;;;;;;;;6307789;22;45390;-77
2023/09/19 12:37:12;;;;;;;;;0.25;0.25;;;;;;;;6281186;22;47015;-77
2023/09/19 12:39:48;;;;;;;;;2.00;0.20;;;;;;;;6308918;22;45251;-74
2023/09/19 12:42:14;;;;;;;;;0.75;0.25;;;;;;;;6307695;22;45319;-73
2023/09/19 12:44:41;;;;;;;;;3.00;0.25;;;;;;;;6309119;22;45393;-74
2023/09/19 12:47:15;;;;;;;;;0.50;0.50;;;;;;;;6309431;22;45288;-73
2023/09/19 12:50:00;;;;;;;;;2.50;1.50;;;;;;;;6280759;22;45510;-73
2023/09/19 12:52:26;;;;;;;;;2.25;0.25;;;;;;;;6309138;22;45711;-75
2023/09/19 12:54:51;;;;;;;;;0.50;0.25;;;;;;;;6309098;22;45200;-74
2023/09/19 12:57:26;;;;;;;;;1.00;1.00;;;;;;;;6308429;22;45187;-73
2023/09/19 12:59:52;;;;;;;;;0.20;0.20;;;;;;;;6309357;22;45236;-74
2023/09/19 13:02:23;;;;;;;;;2.00;2.00;;;;;;;;6309475;22;45213;-73
2023/09/19 13:04:53;;;;;;;;;1.50;0.50;;;;;;;;6309345;22;45279;-73
2023/09/19 13:07:37;;;;;;;;;1.00;1.00;;;;;;;;6309324;22;45320;-76
2023/09/19 13:10:04;;;;;;;;;1.25;1.25;;;;;;;;6308769;22;45355;-75
2023/09/19 13:12:37;;;;;;;;;0.00;0.00;;;;;;;;6309145;22;45346;-76
2023/09/19 13:15:13;;;;;;;;;1.00;0.25;;;;;;;;6307559;22;45456;-73
2023/09/19 13:17:48;;;;;;;;;0.25;0.25;;;;;;;;6281060;22;47921;-75
2023/09/19 13:20:39;;;;;;;;;0.50;0.50;;;;;;;;6308461;22;45222;-76
2023/09/19 13:23:10;;;;;;;;;2.25;1.00;;;;;;;;6308142;22;45306;-76
2023/09/19 13:25:35;;;;;;;;;1.00;0.25;;;;;;;;6307935;22;45904;-78
2023/09/19 13:28:04;;;;;;;;;2.00;2.00;;;;;;;;6309863;22;45331;-76
2023/09/19 13:30:31;;;;;;;;;0.25;0.25;;;;;;;;6308538;22;45271;-77
2023/09/19 13:33:06;;;;;;;;;0.25;0.25;;;;;;;;6309440;22;45326;-75
2023/09/19 13:35:32;;;;;;;;;2.75;1.25;;;;;;;;6307580;22;45207;-75
2023/09/19 13:37:58;;;;;;;;;4.00;2.25;;;;;;;;6309362;22;45213;-75
2023/09/19 13:40:23;;;;;;;;;1.25;0.25;;;;;;;;6308615;22;45259;-77
2023/09/19 13:42:53;;;;;;;;;1.75;1.00;;;;;;;;6281230;22;45227;-76
2023/09/19 13:45:22;;;;;;;;;1.50;1.50;;;;;;;;6308589;22;45347;-75
2023/09/19 13:47:47;;;;;;;;;1.25;1.25;;;;;;;;6309065;22;45236;-75
2023/09/19 13:50:12;;;;;;;;;2.25;0.00;;;;;;;;6308914;22;45202;-75
2023/09/19 13:52:38;;;;;;;;;2.00;1.25;;;;;;;;6309693;22;45206;-76
2023/09/19 13:55:04;;;;;;;;;2.00;2.00;;;;;;;;6308688;22;45164;-77
2023/09/19 13:57:29;;;;;;;;;0.25;0.25;;;;;;;;6309241;22;45286;-76
2023/09/19 13:59:55;;;;;;;;;2.00;2.00;;;;;;;;6281054;22;45245;-76
2023/09/19 14:02:22;;;;;;;;;3.75;2.00;;;;;;;;6309353;22;45172;-77
2023/09/19 14:04:48;;;;;;;;;2.50;2.00;;;;;;;;6306891;22;45455;-78
2023/09/19 14:07:15;;;;;;;;;2.75;1.25;;;;;;;;6307252;22;45524;-77
2023/09/19 14:09:40;;;;;;;;;1.00;1.00;;;;;;;;6308116;22;45350;-78
2023/09/19 14:12:06;;;;;;;;;3.75;2.00;;;;;;;;6281057;22;45563;-77
2023/09/19 14:14:31;;;;;;;;;3.50;3.00;;;;;;;;6309232;22;45209;-77
2023/09/19 14:17:00;;;;;;;;;2.00;2.00;;;;;;;;6308850;22;45289;-79
2023/09/19 14:19:25;;;;;;;;;2.00;2.00;;;;;;;;6308991;22;45255;-78
2023/09/19 14:21:50;;;;;;;;;0.00;0.00;;;;;;;;6308928;22;45160;-79
2023/09/19 14:24:16;;;;;;;;;1.75;1.75;;;;;;;;6308921;22;45344;-78
2023/09/19 14:26:41;;;;;;;;;3.00;1.25;;;;;;;;6308224;22;45651;-78
2023/09/19 14:29:11;;;;;;;;;1.75;1.75;;;;;;;;6308954;22;45289;-78
2023/09/19 14:31:37;;;;;;;;;1.50;0.75;;;;;;;;6308452;22;45159;-79
2023/09/19 14:34:04;;;;;;;;;1.00;1.00;;;;;;;;6280981;22;45482;-78
2023/09/19 14:36:29;;;;;;;;;0.25;0.25;;;;;;;;6308382;22;46466;-76
2023/09/19 14:38:55;;;;;;;;;2.25;2.25;;;;;;;;6308386;22;45144;-78
2023/09/19 14:41:20;;;;;;;;;1.00;1.00;;;;;;;;6308218;22;45220;-76
2023/09/19 14:43:45;;;;;;;;;6.50;6.50;;;;;;;;6309133;22;45144;-77
2023/09/19 14:46:11;;;;;;;;;2.50;2.50;;;;;;;;6306909;22;45228;-78
2023/09/19 14:48:36;;;;;;;;;1.75;0.75;;;;;;;;6308852;22;45424;-77
2023/09/19 14:51:05;;;;;;;;;1.75;1.75;;;;;;;;6308682;22;45306;-75
2023/09/19 14:53:31;;;;;;;;;1.00;1.00;;;;;;;;6308022;22;45386;-77
2023/09/19 14:55:56;;;;;;;;;4.50;1.00;;;;;;;;6279753;22;47198;-77
2023/09/19 14:58:21;;;;;;;;;1.25;1.25;;;;;;;;6309076;22;45159;-76
2023/09/19 15:00:47;;;;;;;;;1.50;1.25;;;;;;;;6308881;22;45358;-76
2023/09/19 15:03:13;;;;;;;;;2.25;1.25;;;;;;;;6308966;22;45374;-77
2023/09/19 15:05:38;;;;;;;;;3.50;1.50;;;;;;;;6308376;22;46012;-76
2023/09/19 15:08:04;;;;;;;;;3.50;2.00;;;;;;;;6308842;22;45077;-76
2023/09/19 15:10:30;;;;;;;;;4.00;2.00;;;;;;;;6306262;22;45272;-76
2023/09/19 15:12:55;;;;;;;;;2.75;1.25;;;;;;;;6308334;22;45394;-76
2023/09/19 15:15:20;;;;;;;;;2.00;2.00;;;;;;;;6308587;22;46212;-77
2023/09/19 15:17:46;;;;;;;;;2.00;0.25;;;;;;;;6308810;22;45270;-77
2023/09/19 15:20:13;;;;;;;;;2.00;2.00;;;;;;;;6308174;22;45259;-76
2023/09/19 15:22:39;;;;;;;;;1.75;1.00;;;;;;;;6308388;22;45290;-76
2023/09/19 15:25:04;;;;;;;;;0.25;0.25;;;;;;;;6308550;22;45235;-76
2023/09/19 15:27:30;;;;;;;;;2.75;0.25;;;;;;;;6308502;22;45197;-75
2023/09/19 15:30:00;;;;;;;;;1.75;1.50;;;;;;;;6307456;22;45433;-76
2023/09/19 15:32:25;;;;;;;;;2.00;2.00;;;;;;;;6308207;22;45407;-76
2023/09/19 15:34:51;;;;;;;;;2.00;2.00;;;;;;;;6280377;22;47469;-75
2023/09/19 15:37:16;;;;;;;;;2.50;2.00;;;;;;;;6308712;22;45265;-75
2023/09/19 15:39:41;;;;;;;;;2.25;1.25;;;;;;;;6308619;22;45388;-76
2023/09/19 15:42:07;;;;;;;;;2.25;1.75;;;;;;;;6279631;22;45547;-75
2023/09/19 15:44:32;;;;;;;;;2.00;2.00;;;;;;;;6308303;22;45177;-75
2023/09/19 15:46:58;;;;;;;;;5.50;3.25;;;;;;;;6307322;22;45214;-75
2023/09/19 15:49:23;;;;;;;;;1.00;1.00;;;;;;;;6309472;22;45176;-75
2023/09/19 15:51:48;;;;;;;;;3.75;2.75;;;;;;;;6308075;22;45237;-75
2023/09/19 15:54:14;;;;;;;;;2.50;2.25;;;;;;;;6308585;22;45373;-75
2023/09/19 15:56:41;;;;;;;;;1.50;1.50;;;;;;;;6307720;22;45312;-75
2023/09/19 15:59:06;;;;;;;;;2.00;2.00;;;;;;;;6307924;22;45294;-74
2023/09/19 16:01:31;;;;;;;;;5.00;3.00;;;;;;;;6307867;22;45425;-75
2023/09/19 16:03:57;;;;;;;;;1.50;1.50;;;;;;;;6308281;22;46215;-75
2023/09/19 16:06:23;;;;;;;;;2.00;2.00;;;;;;;;6308157;22;45272;-76
2023/09/19 16:08:49;;;;;;;;;1.25;1.25;;;;;;;;6308341;22;45234;-75
2023/09/19 16:11:15;;;;;;;;;1.50;1.50;;;;;;;;6306959;22;45462;-75
2023/09/19 16:13:41;;;;;;;;;2.00;1.25;;;;;;;;6308170;22;45861;-74
2023/09/19 16:16:08;;;;;;;;;2.50;2.50;;;;;;;;6308020;22;45224;-75
2023/09/19 16:18:33;;;;;;;;;3.00;1.00;;;;;;;;6280024;22;45292;-77
2023/09/19 16:21:02;;;;;;;;;1.25;1.00;;;;;;;;6308129;22;45225;-74
2023/09/19 16:23:27;;;;;;;;;4.00;1.00;;;;;;;;6307573;22;45170;-74
2023/09/19 16:26:06;;;;;;;;;2.25;0.50;;;;;;;;6307340;22;45204;-74
2023/09/19 16:28:32;;;;;;;;;3.50;1.50;;;;;;;;6308455;22;45243;-76
2023/09/19 16:30:58;;;;;;;;;3.25;2.00;;;;;;;;6308484;22;45303;-75
2023/09/19 16:33:23;;;;;;;;;3.25;1.25;;;;;;;;6309324;22;45221;-75
2023/09/19 16:35:48;;;;;;;;;1.50;1.50;;;;;;;;6309390;22;45545;-75
2023/09/19 16:38:13;;;;;;;;;0.25;0.25;;;;;;;;6281768;22;45421;-74
2023/09/19 16:40:41;;;;;;;;;2.00;2.00;;;;;;;;6280330;22;45501;-75
2023/09/19 16:43:06;;;;;;;;;3.00;2.00;;;;;;;;6308898;22;45444;-75
2023/09/19 16:45:31;;;;;;;;;3.75;1.50;;;;;;;;6309312;22;45227;-75
2023/09/19 16:47:57;;;;;;;;;0.75;0.75;;;;;;;;6309931;22;45181;-75
2023/09/19 16:50:23;;;;;;;;;2.00;0.75;;;;;;;;6309057;22;45413;-75
2023/09/19 16:52:48;;;;;;;;;1.25;1.00;;;;;;;;6308748;22;46386;-75
2023/09/19 16:55:14;;;;;;;;;3.00;1.25;;;;;;;;6308766;22;45210;-75
2023/09/19 16:57:42;;;;;;;;;3.00;3.00;;;;;;;;6309126;22;45235;-75
2023/09/19 17:00:08;;;;;;;;;9.75;6.50;;;;;;;;6308896;22;45421;-75
2023/09/19 17:02:33;;;;;;;;;7.33;5.67;;;;;;;;6280726;22;46865;-74
2023/09/19 17:04:58;;;;;;;;;33.00;30.00;;;;;;;;6309176;22;45471;-74
2023/09/19 17:07:25;;;;;;;;;2.25;1.25;;;;;;;;6281650;22;45312;-74
2023/09/19 17:09:51;;;;;;;;;3.25;2.00;;;;;;;;6308710;22;45854;-74
2023/09/19 17:12:16;;;;;;;;;2.00;2.00;;;;;;;;6308754;22;46207;-74
2023/09/19 17:14:43;;;;;;;;;4.00;4.00;;;;;;;;6309487;22;45374;-75
2023/09/19 17:17:09;;;;;;;;;1.00;1.00;;;;;;;;6281170;22;45237;-74
2023/09/19 17:19:34;;;;;;;;;2.75;2.75;;;;;;;;6308274;22;45193;-74
2023/09/19 17:21:59;;;;;;;;;5.50;2.50;;;;;;;;6309046;22;45215;-73
2023/09/19 17:24:25;;;;;;;;;11.33;10.00;;;;;;;;6309094;22;45089;-74
2023/09/19 17:26:50;;;;;;;;;2.33;2.33;;;;;;;;6308957;22;45147;-74
2023/09/19 17:29:16;;;;;;;;;3.33;2.00;;;;;;;;6309464;22;45235;-74
2023/09/19 17:31:41;;;;;;;;;15.00;12.67;;;;;;;;6309852;22;45203;-74
2023/09/19 17:34:06;;;;;;;;;33.00;30.00;;;;;;;;6309525;22;45219;-74
2023/09/19 17:36:32;;;;;;;;;5.75;2.00;;;;;;;;6309097;22;45421;-74
2023/09/19 17:38:58;;;;;;;;;2.75;1.50;;;;;;;;6283226;22;46695;-74
2023/09/19 17:41:23;;;;;;;;;1.25;1.25;;;;;;;;6307912;22;46123;-74
2023/09/19 17:43:55;;;;;;;;;3.75;3.00;;;;;;;;6308941;22;45239;-74
2023/09/19 17:46:21;;;;;;;;;2.00;1.50;;;;;;;;6308717;22;45413;-74
2023/09/19 17:48:47;;;;;;;;;5.00;5.00;;;;;;;;6307402;22;45159;-74
2023/09/19 17:51:13;;;;;;;;;2.00;2.00;;;;;;;;6308723;22;45334;-74
2023/09/19 17:53:39;;;;;;;;;3.33;2.67;;;;;;;;6309429;22;45219;-75
2023/09/19 17:56:05;;;;;;;;;1.67;1.67;;;;;;;;6309118;22;45407;-75
2023/09/19 17:58:32;;;;;;;;;5.25;2.25;;;;;;;;6280878;22;46360;-75
2023/09/19 18:01:06;;;;;;;;;3.67;1.33;;;;;;;;6309628;22;45216;-75
2023/09/19 18:03:31;;;;;;;;;3.33;2.67;;;;;;;;6310168;22;45208;-75
2023/09/19 18:05:56;;;;;;;;;5.33;3.00;;;;;;;;6309387;22;45360;-75
2023/09/19 18:08:22;;;;;;;;;2.33;2.33;;;;;;;;6280931;22;45409;-76
2023/09/19 18:10:48;;;;;;;;;2.00;1.67;;;;;;;;6308672;22;45199;-74
2023/09/19 18:13:13;;;;;;;;;2.33;2.33;;;;;;;;6309234;22;45204;-76
2023/09/19 18:15:38;;;;;;;;;3.33;3.33;;;;;;;;6309265;22;45136;-75
2023/09/19 18:18:04;;;;;;;;;4.00;4.00;;;;;;;;6309274;22;45086;-75
2023/09/19 18:20:33;;;;;;;;;4.00;3.00;;;;;;;;6281034;22;47300;-76
2023/09/19 18:22:59;;;;;;;;;3.33;2.67;;;;;;;;6309352;22;45263;-76